createdAt,value
2023-01-20T00:01:38.705Z,80.13
2023-01-20T00:04:06.406Z,80.18
2023-01-20T00:06:33.553Z,79.98
2023-01-20T00:09:02.710Z,80.29
2023-01-20T00:11:30.193Z,80.33
2023-01-20T00:13:59.197Z,80.58
2023-01-20T00:16:26.749Z,80.42
2023-01-20T00:18:54.556Z,80.11
2023-01-20T00:21:21.681Z,79.98
2023-01-20T00:23:48.892Z,80.16
2023-01-20T00:26:20.561Z,80.24
2023-01-20T00:28:48.418Z,80.32
2023-01-20T00:31:23.766Z,80.28
2023-01-20T00:33:52.038Z,80.31
2023-01-20T00:36:20.241Z,80.46
2023-01-20T00:38:47.500Z,80.48
2023-01-20T00:41:14.918Z,80.29
2023-01-20T00:43:42.303Z,80.48
2023-01-20T00:46:09.297Z,80.38
2023-01-20T00:48:37.137Z,80.13
2023-01-20T00:51:05.494Z,80.20
2023-01-20T00:53:32.643Z,80.44
2023-01-20T00:55:59.586Z,80.28
2023-01-20T00:58:26.521Z,80.30
2023-01-20T01:00:55.313Z,80.27
2023-01-20T01:03:23.093Z,80.64
2023-01-20T01:05:49.889Z,80.61
2023-01-20T01:08:16.676Z,80.40
2023-01-20T01:10:43.524Z,80.59
2023-01-20T01:13:11.178Z,80.79
2023-01-20T01:15:37.982Z,80.93
2023-01-20T01:18:04.950Z,81.28
2023-01-20T01:20:31.606Z,80.87
2023-01-20T01:22:58.411Z,81.12
2023-01-20T01:25:25.284Z,81.06
2023-01-20T01:27:52.045Z,81.01
2023-01-20T01:30:18.856Z,81.03
2023-01-20T01:32:45.686Z,81.36
2023-01-20T01:35:12.644Z,81.67
2023-01-20T01:37:39.580Z,81.20
2023-01-20T01:40:07.118Z,81.23
2023-01-20T01:42:33.907Z,81.53
2023-01-20T01:45:13.858Z,81.69
2023-01-20T01:47:46.844Z,81.56
2023-01-20T01:50:25.014Z,81.43
2023-01-20T01:52:54.281Z,81.43
2023-01-20T01:55:24.737Z,81.59
2023-01-20T01:57:51.791Z,81.88
2023-01-20T02:00:19.214Z,81.83
2023-01-20T02:02:45.882Z,81.66
2023-01-20T02:05:15.063Z,81.98
2023-01-20T02:07:46.287Z,82.21
2023-01-20T02:10:13.728Z,81.96
2023-01-20T02:12:42.647Z,81.68
2023-01-20T02:15:09.748Z,81.88
2023-01-20T02:17:41.728Z,81.99
2023-01-20T02:20:30.206Z,82.01
2023-01-20T02:23:21.505Z,82.50
2023-01-20T02:25:53.931Z,82.37
2023-01-20T02:28:35.022Z,82.01
2023-01-20T02:31:37.142Z,82.20
2023-01-20T02:34:35.368Z,82.40
2023-01-20T02:37:13.644Z,82.14
2023-01-20T02:39:51.471Z,82.30
2023-01-20T02:42:41.290Z,82.30
2023-01-20T02:45:25.988Z,81.90
2023-01-20T02:48:15.687Z,82.39
2023-01-20T02:51:21.527Z,82.41
2023-01-20T02:53:56.137Z,82.41
2023-01-20T02:56:27.010Z,82.02
2023-01-20T02:59:02.356Z,82.41
2023-01-20T03:01:34.161Z,82.14
2023-01-20T03:04:04.196Z,81.98
2023-01-20T03:06:37.254Z,82.33
2023-01-20T03:09:09.319Z,82.22
2023-01-20T03:11:41.109Z,81.90
2023-01-20T03:14:12.578Z,82.45
2023-01-20T03:16:40.517Z,81.87
2023-01-20T03:19:07.766Z,82.29
2023-01-20T03:21:35.066Z,82.02
2023-01-20T03:24:04.634Z,82.47
2023-01-20T03:26:31.517Z,82.12
2023-01-20T03:28:59.229Z,82.23
2023-01-20T03:31:34.324Z,82.47
2023-01-20T03:34:06.821Z,82.34
2023-01-20T03:36:34.327Z,82.58
2023-01-20T03:39:01.431Z,82.25
2023-01-20T03:41:50.926Z,82.64
2023-01-20T03:44:47.965Z,82.07
2023-01-20T03:47:29.142Z,82.77
2023-01-20T03:50:20.594Z,82.80
2023-01-20T03:52:58.282Z,82.35
2023-01-20T03:55:33.717Z,82.62
2023-01-20T03:58:08.652Z,82.65
2023-01-20T04:00:39.602Z,82.44
2023-01-20T04:03:13.296Z,82.83
2023-01-20T04:05:42.490Z,82.57
2023-01-20T04:08:11.875Z,82.50
2023-01-20T04:10:41.193Z,82.75
2023-01-20T04:13:07.971Z,82.51
2023-01-20T04:15:38.753Z,82.98
2023-01-20T04:18:12.679Z,82.50
2023-01-20T04:20:40.632Z,82.42
2023-01-20T04:23:12.396Z,82.48
2023-01-20T04:25:39.378Z,82.60
2023-01-20T04:28:06.247Z,82.53
2023-01-20T04:30:33.129Z,82.65
2023-01-20T04:33:00.089Z,82.60
2023-01-20T04:35:27.062Z,82.88
2023-01-20T04:37:53.715Z,82.73
2023-01-20T04:40:20.487Z,82.85
2023-01-20T04:42:47.254Z,82.75
2023-01-20T04:45:17.794Z,82.59
2023-01-20T04:47:44.621Z,82.68
2023-01-20T04:50:12.314Z,82.46
2023-01-20T04:52:39.006Z,82.96
2023-01-20T04:55:06.099Z,82.98
2023-01-20T04:57:32.911Z,82.75
2023-01-20T04:59:59.627Z,82.62
2023-01-20T05:02:26.462Z,82.66
2023-01-20T05:04:53.307Z,82.70
2023-01-20T05:07:19.985Z,82.43
2023-01-20T05:09:46.827Z,82.46
2023-01-20T08:01:56.550Z,82.98
2023-01-20T08:04:23.155Z,83.32
2023-01-20T08:06:50.154Z,82.92
2023-01-20T08:09:16.956Z,82.75
2023-01-20T08:11:43.800Z,82.59
2023-01-20T08:14:10.574Z,82.53
2023-01-20T08:16:37.374Z,82.58
2023-01-20T08:19:04.503Z,82.89
2023-01-20T08:21:33.127Z,82.72
2023-01-20T08:24:02.201Z,82.94
2023-01-20T08:26:31.351Z,82.55
2023-01-20T08:29:06.487Z,82.70
2023-01-20T08:31:33.610Z,82.44
2023-01-20T08:34:00.751Z,82.84
2023-01-20T08:36:31.939Z,82.63
2023-01-20T08:39:02.568Z,82.45
2023-01-20T08:41:33.078Z,82.56
2023-01-20T08:44:01.771Z,82.23
2023-01-20T08:46:28.788Z,82.35
2023-01-20T08:48:56.486Z,82.22
2023-01-20T08:51:29.283Z,82.34
2023-01-20T08:53:56.221Z,82.62
2023-01-20T08:56:23.584Z,82.57
2023-01-20T08:58:51.155Z,81.94
2023-01-20T09:01:21.332Z,82.15
2023-01-20T09:04:03.363Z,82.09
2023-01-20T09:06:36.732Z,82.32
2023-01-20T09:09:04.633Z,82.09
2023-01-20T09:11:31.993Z,82.03
2023-01-20T09:13:58.804Z,82.29
2023-01-20T09:16:25.592Z,82.12
2023-01-20T09:18:52.492Z,81.72
2023-01-20T09:21:19.341Z,81.89
2023-01-20T09:23:48.407Z,81.76
2023-01-20T09:26:22.797Z,81.92
2023-01-20T09:29:09.345Z,81.69
2023-01-20T09:31:44.569Z,81.41
2023-01-20T09:34:19.718Z,81.18
2023-01-20T09:36:50.120Z,81.06
2023-01-20T09:39:36.480Z,81.16
2023-01-20T09:42:32.907Z,81.42
2023-01-20T09:45:26.287Z,81.29
2023-01-20T09:48:14.145Z,81.28
2023-01-20T09:51:13.794Z,80.85
2023-01-20T09:53:54.365Z,81.27
2023-01-20T09:56:23.035Z,81.18
2023-01-20T09:59:12.470Z,81.11
2023-01-20T10:01:46.657Z,80.77
2023-01-20T10:04:29.920Z,80.57
2023-01-20T10:07:22.756Z,80.61
2023-01-20T10:10:18.291Z,80.81
2023-01-20T10:12:54.916Z,80.95
2023-01-20T10:15:34.087Z,81.00
2023-01-20T10:18:06.802Z,81.12
2023-01-20T10:20:45.565Z,80.95
2023-01-20T10:23:33.980Z,80.70
2023-01-20T10:26:11.820Z,80.77
2023-01-20T10:28:44.277Z,80.79
2023-01-20T10:31:14.645Z,80.88
2023-01-20T10:33:44.931Z,80.70
2023-01-20T10:36:31.567Z,80.48
2023-01-20T10:38:59.698Z,80.51
2023-01-20T10:41:42.287Z,80.34
2023-01-20T10:44:14.872Z,80.59
2023-01-20T10:46:54.007Z,80.43
2023-01-20T10:49:52.671Z,80.18
2023-01-20T10:52:41.253Z,79.97
2023-01-20T10:55:25.543Z,79.84
2023-01-20T10:57:59.167Z,79.88
2023-01-20T11:00:29.998Z,79.98
2023-01-20T11:03:02.444Z,80.26
2023-01-20T11:05:41.163Z,80.33
2023-01-20T11:08:16.706Z,80.26
2023-01-20T11:10:43.824Z,80.44
2023-01-20T11:13:11.741Z,80.05
2023-01-20T11:15:45.651Z,80.03
2023-01-20T11:18:15.351Z,80.30
2023-01-20T11:20:54.370Z,79.55
2023-01-20T11:23:33.188Z,79.65
2023-01-20T11:26:02.501Z,79.57
2023-01-20T11:28:36.988Z,79.33
2023-01-20T11:31:04.801Z,79.42
2023-01-20T11:33:31.671Z,79.62
2023-01-20T11:36:19.052Z,79.38
2023-01-20T11:38:49.062Z,79.72
2023-01-20T11:41:24.203Z,79.34
2023-01-20T11:43:53.428Z,79.52
2023-01-20T11:46:24.361Z,79.41
2023-01-20T11:49:17.910Z,79.55
2023-01-20T11:51:49.140Z,79.07
2023-01-20T11:54:20.707Z,79.20
2023-01-20T11:56:52.092Z,79.51
2023-01-20T11:59:24.471Z,79.27
2023-01-20T12:01:58.075Z,79.33
2023-01-20T12:04:36.697Z,78.93
2023-01-20T12:07:18.310Z,79.04
2023-01-20T12:09:50.605Z,78.97
2023-01-20T12:12:49.431Z,78.84
2023-01-20T12:15:21.344Z,78.90
2023-01-20T12:18:16.790Z,78.74
2023-01-20T12:20:56.170Z,79.24
2023-01-20T12:23:45.892Z,78.52
2023-01-20T12:26:15.171Z,79.06
2023-01-20T12:29:03.096Z,79.08
2023-01-20T12:31:31.154Z,78.71
2023-01-20T12:34:07.083Z,79.09
2023-01-20T12:36:39.911Z,78.91
2023-01-20T12:39:17.865Z,79.05
2023-01-20T12:41:47.596Z,78.78
2023-01-20T12:44:39.056Z,78.77
2023-01-20T12:47:18.276Z,78.78
2023-01-20T12:50:05.256Z,78.62
2023-01-20T12:52:50.650Z,79.28
2023-01-20T12:55:33.045Z,78.61
2023-01-20T12:58:18.554Z,78.53
2023-01-20T13:01:04.353Z,78.99
2023-01-20T13:03:40.196Z,78.73
2023-01-20T13:06:25.468Z,78.82
2023-01-20T13:09:01.232Z,78.51
2023-01-20T13:11:47.920Z,78.76
2023-01-20T13:14:21.249Z,78.63
2023-01-20T13:16:56.670Z,78.01
2023-01-20T13:19:33.278Z,78.39
2023-01-20T13:22:11.064Z,78.30
2023-01-20T13:24:41.858Z,78.34
2023-01-20T13:27:10.013Z,78.19
2023-01-20T13:29:36.695Z,78.18
2023-01-20T13:32:05.057Z,78.06
2023-01-20T13:34:34.258Z,77.83
2023-01-20T13:37:04.067Z,77.96
2023-01-20T13:39:40.703Z,78.13
2023-01-20T13:42:38.445Z,78.30
2023-01-20T13:45:14.673Z,78.55
2023-01-20T13:47:50.485Z,78.24
2023-01-20T13:50:33.638Z,77.94
2023-01-20T13:53:00.283Z,78.38
2023-01-20T13:55:49.547Z,78.17
2023-01-20T13:58:31.702Z,78.21
2023-01-20T14:01:03.860Z,77.96
2023-01-20T14:03:36.289Z,77.86
2023-01-20T14:06:18.487Z,77.88
2023-01-20T14:08:48.237Z,77.80
2023-01-20T14:11:21.885Z,77.40
2023-01-20T14:13:59.684Z,77.66
2023-01-20T14:16:36.719Z,77.59
2023-01-20T14:19:34.887Z,77.56
2023-01-20T14:22:04.491Z,77.53
2023-01-20T14:24:37.360Z,77.71
2023-01-20T14:27:32.477Z,77.47
2023-01-20T14:30:27.640Z,77.52
2023-01-20T14:32:55.256Z,77.68
2023-01-20T14:35:33.719Z,77.52
2023-01-20T14:38:01.163Z,77.51
2023-01-20T14:40:35.367Z,77.49
2023-01-20T14:43:12.319Z,77.43
2023-01-20T14:45:43.584Z,77.31
2023-01-20T14:48:13.661Z,77.26
2023-01-20T14:50:49.840Z,77.55
2023-01-20T14:53:16.494Z,77.18
2023-01-20T14:55:56.400Z,77.26
2023-01-20T14:58:24.254Z,76.86
2023-01-20T15:00:53.472Z,77.20
2023-01-20T15:03:25.441Z,76.88
2023-01-20T15:06:01.574Z,77.20
2023-01-20T15:08:34.386Z,76.97
2023-01-20T15:11:19.602Z,77.12
2023-01-20T15:13:57.381Z,77.04
2023-01-20T15:16:24.008Z,77.30
2023-01-20T15:19:16.513Z,77.00
2023-01-20T15:21:46.176Z,77.30
2023-01-20T15:24:23.321Z,77.20
2023-01-20T15:26:52.258Z,77.02
2023-01-20T15:29:21.942Z,77.25
2023-01-20T15:31:49.941Z,77.03
2023-01-20T15:34:17.575Z,76.84
2023-01-20T15:36:45.795Z,77.22
2023-01-20T15:39:20.595Z,77.26
2023-01-20T15:41:48.842Z,77.20
2023-01-20T15:44:15.789Z,77.27
2023-01-20T15:46:42.797Z,77.32
2023-01-20T15:49:14.843Z,77.29
2023-01-20T15:51:42.769Z,76.98
2023-01-20T15:54:10.684Z,76.86
2023-01-20T15:56:40.570Z,77.09
2023-01-20T15:59:13.142Z,77.25
2023-01-20T16:01:40.170Z,76.98
2023-01-20T16:04:06.952Z,76.73
2023-01-20T16:06:34.830Z,76.46
2023-01-20T16:09:03.581Z,76.60
2023-01-20T16:11:30.314Z,77.04
2023-01-20T16:13:58.081Z,76.92
2023-01-20T16:16:26.791Z,76.66
2023-01-20T16:18:55.500Z,76.78
2023-01-20T16:21:22.408Z,76.81
2023-01-20T16:23:49.162Z,76.45
2023-01-20T16:26:22.952Z,76.90
2023-01-20T16:28:51.141Z,76.98
2023-01-20T16:31:18.430Z,76.38
2023-01-20T16:33:45.416Z,76.75
2023-01-20T16:36:14.310Z,76.76
2023-01-20T16:38:41.557Z,76.94
2023-01-20T16:41:21.729Z,76.43
2023-01-20T16:43:49.771Z,76.72
2023-01-20T16:46:31.620Z,76.58
2023-01-20T16:49:03.498Z,76.78
2023-01-20T16:51:32.728Z,76.83
2023-01-20T16:54:01.369Z,76.72
2023-01-20T16:56:31.383Z,76.23
2023-01-20T16:59:01.649Z,76.56
2023-01-20T17:01:30.625Z,76.82
2023-01-20T17:03:59.880Z,76.83
2023-01-20T17:06:29.465Z,76.66
2023-01-20T17:08:58.030Z,76.39
2023-01-20T17:11:30.637Z,76.33
2023-01-20T17:13:58.803Z,76.24
2023-01-20T17:16:28.368Z,76.32
2023-01-20T17:18:58.638Z,76.54
2023-01-20T17:21:28.027Z,75.99
2023-01-20T17:23:56.954Z,76.30
2023-01-20T17:26:24.477Z,76.28
2023-01-20T17:29:02.526Z,76.19
2023-01-20T17:31:31.983Z,76.31
2023-01-20T17:33:58.933Z,76.35
2023-01-20T17:36:25.695Z,76.22
2023-01-20T17:38:52.582Z,76.04
2023-01-20T17:41:19.308Z,76.03
2023-01-20T17:43:46.646Z,75.92
2023-01-20T17:46:13.780Z,75.84
2023-01-20T17:48:40.608Z,75.76
2023-01-20T17:51:12.860Z,75.64
2023-01-20T17:53:40.016Z,75.31
2023-01-20T17:56:12.901Z,75.84
2023-01-20T17:58:41.601Z,75.46
2023-01-20T18:01:21.883Z,75.56
2023-01-20T18:03:50.870Z,76.07
2023-01-20T18:06:19.582Z,75.48
2023-01-20T18:08:54.232Z,75.85
2023-01-20T18:11:23.183Z,75.19
2023-01-20T18:13:52.292Z,75.52
2023-01-20T18:16:21.154Z,75.54
2023-01-20T18:18:49.398Z,75.08
2023-01-20T18:21:18.588Z,75.06
2023-01-20T18:23:46.995Z,75.32
2023-01-20T18:26:15.989Z,74.82
2023-01-20T18:28:43.326Z,75.12
2023-01-20T18:31:16.901Z,74.81
2023-01-20T18:33:47.691Z,75.10
2023-01-20T18:36:15.726Z,75.01
2023-01-20T18:38:45.943Z,75.11
2023-01-20T18:41:14.472Z,74.91
2023-01-20T18:43:41.295Z,75.10
2023-01-20T18:46:09.326Z,74.96
2023-01-20T18:48:40.463Z,74.87
2023-01-20T18:51:10.444Z,74.75
2023-01-20T18:53:37.231Z,74.42
2023-01-20T18:56:06.684Z,74.04
2023-01-20T18:58:34.809Z,74.48
2023-01-20T19:01:09.115Z,74.35
2023-01-20T19:03:37.583Z,74.32
2023-01-20T19:06:07.864Z,74.07
2023-01-20T19:08:34.846Z,74.60
2023-01-20T19:11:03.575Z,74.46
2023-01-20T19:13:30.327Z,74.14
2023-01-20T19:15:57.532Z,74.34
2023-01-20T19:18:24.967Z,74.31
2023-01-20T19:20:51.853Z,74.28
2023-01-20T19:23:19.107Z,74.40
2023-01-20T19:25:45.854Z,74.36
2023-01-20T19:28:14.361Z,74.33
2023-01-20T19:30:41.441Z,73.99
2023-01-20T19:33:12.302Z,73.82
2023-01-20T19:35:41.227Z,73.86
2023-01-20T19:38:08.870Z,73.74
2023-01-20T19:40:35.899Z,73.58
2023-01-20T19:43:02.577Z,73.86
2023-01-20T19:45:44.830Z,73.98
2023-01-20T19:48:12.363Z,73.58
2023-01-20T19:50:39.683Z,73.85
2023-01-20T19:53:06.451Z,73.33
2023-01-20T19:55:33.195Z,73.52
2023-01-20T19:57:59.887Z,73.38
2023-01-20T20:00:26.523Z,73.71
2023-01-20T20:02:54.669Z,73.61
2023-01-20T20:05:21.646Z,73.42
2023-01-20T20:07:48.503Z,73.14
2023-01-20T20:10:18.279Z,73.19
2023-01-20T20:12:45.342Z,73.45
2023-01-20T20:15:12.300Z,73.36
2023-01-20T20:17:39.250Z,73.56
2023-01-20T20:20:06.205Z,73.67
2023-01-20T20:22:32.855Z,73.78
2023-01-20T20:24:59.692Z,73.88
2023-01-20T20:27:26.588Z,73.73
2023-01-20T20:29:56.543Z,73.76
2023-01-20T20:32:23.986Z,73.51
2023-01-20T20:34:52.052Z,73.43
2023-01-20T20:37:18.757Z,73.54
2023-01-20T20:39:45.840Z,73.60
2023-01-20T20:42:13.400Z,73.20
2023-01-20T20:44:41.132Z,73.57
2023-01-20T20:47:07.974Z,73.67
2023-01-20T20:49:34.874Z,73.64
2023-01-20T20:52:02.581Z,73.67
2023-01-20T20:54:29.363Z,73.88
2023-01-20T20:56:56.261Z,73.67
2023-01-20T20:59:24.831Z,73.53
2023-01-20T21:01:52.650Z,74.02
2023-01-20T21:04:19.528Z,74.04
2023-01-20T21:06:46.282Z,73.88
2023-01-20T21:09:13.014Z,73.95
2023-01-20T21:11:41.508Z,73.84
2023-01-20T21:14:10.109Z,73.98
2023-01-20T21:16:38.151Z,73.78
2023-01-20T21:19:05.355Z,74.42
2023-01-20T21:21:32.236Z,73.94
2023-01-20T21:23:59.816Z,74.05
2023-01-20T21:26:30.296Z,74.21
2023-01-20T21:29:02.098Z,74.30
2023-01-20T21:31:30.967Z,74.34
2023-01-20T21:33:58.785Z,74.12
2023-01-20T21:36:27.226Z,74.41
2023-01-20T21:38:54.337Z,74.34
2023-01-20T21:41:21.489Z,74.71
2023-01-20T21:44:07.327Z,74.58
2023-01-20T21:46:38.802Z,74.50
2023-01-20T21:49:25.520Z,74.69
2023-01-20T21:52:11.038Z,74.74
2023-01-20T21:54:39.921Z,74.62
2023-01-20T21:57:07.127Z,74.75
2023-01-20T21:59:33.917Z,74.62
2023-01-20T22:02:00.919Z,74.90
2023-01-20T22:04:27.879Z,75.02
2023-01-20T22:06:54.641Z,75.05
2023-01-20T22:09:21.577Z,74.82
2023-01-20T22:11:49.638Z,75.05
2023-01-20T22:14:16.543Z,75.02
2023-01-20T22:16:43.518Z,75.04
2023-01-20T22:19:13.464Z,75.29
2023-01-20T22:21:40.539Z,75.20
2023-01-20T22:24:07.777Z,75.53
2023-01-20T22:26:34.548Z,75.65
2023-01-20T22:29:01.707Z,75.18
2023-01-20T22:31:30.285Z,75.30
2023-01-20T22:33:59.710Z,75.32
2023-01-20T22:36:27.771Z,75.30
2023-01-20T22:38:54.844Z,75.64
2023-01-20T22:41:22.091Z,75.21
2023-01-20T22:43:51.129Z,75.71
2023-01-20T22:46:20.341Z,75.57
2023-01-20T22:48:47.649Z,75.66
2023-01-20T22:51:17.203Z,75.60
2023-01-20T22:53:44.501Z,75.58
2023-01-20T22:56:14.648Z,75.92
2023-01-20T22:58:43.470Z,75.70
2023-01-20T23:01:19.777Z,75.98
2023-01-20T23:03:46.916Z,75.61
2023-01-20T23:06:14.603Z,76.19
2023-01-20T23:08:42.050Z,75.90
2023-01-20T23:11:14.184Z,75.98
2023-01-20T23:13:41.872Z,75.94
2023-01-20T23:16:14.301Z,76.04
2023-01-20T23:18:41.315Z,76.01
2023-01-20T23:21:08.194Z,75.81
2023-01-20T23:23:35.553Z,76.01
2023-01-20T23:26:15.269Z,76.57
2023-01-20T23:28:43.212Z,76.62
2023-01-20T23:31:12.599Z,76.58
2023-01-20T23:33:41.310Z,76.23
2023-01-20T23:36:15.815Z,76.05
2023-01-20T23:38:43.613Z,76.07
2023-01-20T23:41:11.451Z,76.46
2023-01-20T23:43:38.239Z,76.56
2023-01-20T23:46:05.859Z,76.39
2023-01-20T23:48:34.349Z,76.49
2023-01-20T23:51:02.171Z,76.42
2023-01-20T23:53:30.989Z,77.08
2023-01-20T23:56:07.061Z,76.87
2023-01-20T23:58:33.922Z,77.41
